sensor_id;sensor_type;location;lat;lon;timestamp;P1;durP1;ratioP1;P2;durP2;ratioP2
60078;SDS011;45951;45.824;8.824;2023-06-10T00:01:17;7.63;;;6.82;;
60078;SDS011;45951;45.824;8.824;2023-06-10T00:02:58;8.52;;;7.18;;
60078;SDS011;45951;45.824;8.824;2023-06-10T00:04:39;7.97;;;6.82;;
60078;SDS011;45951;45.824;8.824;2023-06-10T00:06:19;8.80;;;6.80;;
60078;SDS011;45951;45.824;8.824;2023-06-10T00:08:01;8.02;;;6.70;;
60078;SDS011;45951;45.824;8.824;2023-06-10T00:09:47;8.48;;;6.85;;
60078;SDS011;45951;45.824;8.824;2023-06-10T00:11:27;8.10;;;6.50;;
60078;SDS011;45951;45.824;8.824;2023-06-10T00:13:07;8.45;;;6.60;;
60078;SDS011;45951;45.824;8.824;2023-06-10T00:14:48;9.32;;;7.13;;
60078;SDS011;45951;45.824;8.824;2023-06-10T00:16:33;8.73;;;6.82;;
60078;SDS011;45951;45.824;8.824;2023-06-10T00:18:14;8.57;;;6.68;;
60078;SDS011;45951;45.824;8.824;2023-06-10T00:19:56;8.02;;;6.95;;
60078;SDS011;45951;45.824;8.824;2023-06-10T00:21:37;8.48;;;6.93;;
60078;SDS011;45951;45.824;8.824;2023-06-10T00:23:20;8.13;;;6.55;;
60078;SDS011;45951;45.824;8.824;2023-06-10T00:25:00;10.23;;;7.15;;
60078;SDS011;45951;45.824;8.824;2023-06-10T00:26:43;9.27;;;7.07;;
60078;SDS011;45951;45.824;8.824;2023-06-10T00:28:24;9.20;;;7.10;;
60078;SDS011;45951;45.824;8.824;2023-06-10T00:30:04;9.18;;;7.10;;
60078;SDS011;45951;45.824;8.824;2023-06-10T00:31:46;8.30;;;6.82;;
60078;SDS011;45951;45.824;8.824;2023-06-10T00:33:27;9.02;;;7.15;;
60078;SDS011;45951;45.824;8.824;2023-06-10T00:35:08;8.73;;;7.10;;
60078;SDS011;45951;45.824;8.824;2023-06-10T00:36:48;8.45;;;6.95;;
60078;SDS011;45951;45.824;8.824;2023-06-10T00:38:28;8.50;;;7.38;;
60078;SDS011;45951;45.824;8.824;2023-06-10T00:40:09;7.88;;;6.80;;
60078;SDS011;45951;45.824;8.824;2023-06-10T00:41:50;8.85;;;6.80;;
60078;SDS011;45951;45.824;8.824;2023-06-10T00:43:30;8.20;;;7.10;;
60078;SDS011;45951;45.824;8.824;2023-06-10T00:45:10;9.05;;;7.20;;
60078;SDS011;45951;45.824;8.824;2023-06-10T00:46:51;8.65;;;6.80;;
60078;SDS011;45951;45.824;8.824;2023-06-10T00:48:35;8.55;;;7.35;;
60078;SDS011;45951;45.824;8.824;2023-06-10T00:50:15;7.88;;;7.07;;
60078;SDS011;45951;45.824;8.824;2023-06-10T00:51:56;8.85;;;7.28;;
60078;SDS011;45951;45.824;8.824;2023-06-10T00:53:36;7.55;;;6.55;;
60078;SDS011;45951;45.824;8.824;2023-06-10T00:55:17;7.97;;;6.78;;
60078;SDS011;45951;45.824;8.824;2023-06-10T00:56:59;9.18;;;6.80;;
60078;SDS011;45951;45.824;8.824;2023-06-10T00:58:40;9.23;;;7.20;;
60078;SDS011;45951;45.824;8.824;2023-06-10T01:00:21;10.35;;;7.38;;
60078;SDS011;45951;45.824;8.824;2023-06-10T01:02:03;7.72;;;6.53;;
60078;SDS011;45951;45.824;8.824;2023-06-10T01:03:43;8.77;;;7.15;;
60078;SDS011;45951;45.824;8.824;2023-06-10T01:05:25;7.78;;;6.90;;
60078;SDS011;45951;45.824;8.824;2023-06-10T01:07:23;9.43;;;7.25;;
60078;SDS011;45951;45.824;8.824;2023-06-10T01:09:08;8.73;;;6.80;;
60078;SDS011;45951;45.824;8.824;2023-06-10T01:11:14;10.00;;;7.55;;
60078;SDS011;45951;45.824;8.824;2023-06-10T01:12:59;8.70;;;6.97;;
60078;SDS011;45951;45.824;8.824;2023-06-10T01:14:46;8.43;;;7.50;;
60078;SDS011;45951;45.824;8.824;2023-06-10T01:16:28;9.98;;;7.70;;
60078;SDS011;45951;45.824;8.824;2023-06-10T01:18:09;9.63;;;7.28;;
60078;SDS011;45951;45.824;8.824;2023-06-10T01:19:55;9.43;;;6.95;;
60078;SDS011;45951;45.824;8.824;2023-06-10T01:21:37;9.07;;;7.38;;
60078;SDS011;45951;45.824;8.824;2023-06-10T01:23:19;8.85;;;7.35;;
60078;SDS011;45951;45.824;8.824;2023-06-10T01:24:59;9.10;;;7.63;;
60078;SDS011;45951;45.824;8.824;2023-06-10T01:26:40;8.30;;;7.40;;
60078;SDS011;45951;45.824;8.824;2023-06-10T01:28:24;9.73;;;7.05;;
60078;SDS011;45951;45.824;8.824;2023-06-10T01:30:08;8.98;;;7.50;;
60078;SDS011;45951;45.824;8.824;2023-06-10T01:32:04;9.48;;;7.65;;
60078;SDS011;45951;45.824;8.824;2023-06-10T01:33:49;9.02;;;6.90;;
60078;SDS011;45951;45.824;8.824;2023-06-10T01:35:32;9.57;;;7.28;;
60078;SDS011;45951;45.824;8.824;2023-06-10T01:37:13;10.85;;;7.65;;
60078;SDS011;45951;45.824;8.824;2023-06-10T01:38:56;9.48;;;7.45;;
60078;SDS011;45951;45.824;8.824;2023-06-10T01:40:36;9.98;;;7.55;;
60078;SDS011;45951;45.824;8.824;2023-06-10T01:42:16;9.05;;;7.28;;
60078;SDS011;45951;45.824;8.824;2023-06-10T01:43:57;8.80;;;7.68;;
60078;SDS011;45951;45.824;8.824;2023-06-10T01:45:37;9.50;;;7.80;;
60078;SDS011;45951;45.824;8.824;2023-06-10T01:47:17;9.82;;;8.15;;
60078;SDS011;45951;45.824;8.824;2023-06-10T01:48:58;10.38;;;8.60;;
60078;SDS011;45951;45.824;8.824;2023-06-10T01:50:38;16.48;;;13.50;;
60078;SDS011;45951;45.824;8.824;2023-06-10T01:52:18;17.75;;;15.32;;
60078;SDS011;45951;45.824;8.824;2023-06-10T01:53:59;20.55;;;16.70;;
60078;SDS011;45951;45.824;8.824;2023-06-10T01:55:39;20.27;;;16.40;;
60078;SDS011;45951;45.824;8.824;2023-06-10T01:57:19;17.55;;;14.48;;
60078;SDS011;45951;45.824;8.824;2023-06-10T01:59:00;16.35;;;14.23;;
60078;SDS011;45951;45.824;8.824;2023-06-10T02:00:40;20.15;;;16.65;;
60078;SDS011;45951;45.824;8.824;2023-06-10T02:02:20;20.77;;;14.48;;
60078;SDS011;45951;45.824;8.824;2023-06-10T02:04:02;20.50;;;16.92;;
60078;SDS011;45951;45.824;8.824;2023-06-10T02:05:42;24.55;;;18.75;;
60078;SDS011;45951;45.824;8.824;2023-06-10T02:07:23;22.42;;;18.67;;
60078;SDS011;45951;45.824;8.824;2023-06-10T02:09:03;22.08;;;17.42;;
60078;SDS011;45951;45.824;8.824;2023-06-10T02:10:43;21.20;;;17.88;;
60078;SDS011;45951;45.824;8.824;2023-06-10T02:12:24;19.80;;;17.02;;
60078;SDS011;45951;45.824;8.824;2023-06-10T02:14:04;23.13;;;17.48;;
60078;SDS011;45951;45.824;8.824;2023-06-10T02:15:45;22.35;;;17.67;;
60078;SDS011;45951;45.824;8.824;2023-06-10T02:17:25;25.98;;;18.55;;
60078;SDS011;45951;45.824;8.824;2023-06-10T02:19:06;23.52;;;18.42;;
60078;SDS011;45951;45.824;8.824;2023-06-10T02:20:46;21.20;;;18.17;;
60078;SDS011;45951;45.824;8.824;2023-06-10T02:22:27;21.80;;;17.73;;
60078;SDS011;45951;45.824;8.824;2023-06-10T02:24:07;21.10;;;17.38;;
60078;SDS011;45951;45.824;8.824;2023-06-10T02:25:48;22.75;;;18.08;;
60078;SDS011;45951;45.824;8.824;2023-06-10T02:27:28;22.75;;;17.90;;
60078;SDS011;45951;45.824;8.824;2023-06-10T02:29:08;22.60;;;17.88;;
60078;SDS011;45951;45.824;8.824;2023-06-10T02:30:49;19.95;;;16.65;;
60078;SDS011;45951;45.824;8.824;2023-06-10T02:32:29;21.63;;;17.98;;
60078;SDS011;45951;45.824;8.824;2023-06-10T02:34:09;23.73;;;18.88;;
60078;SDS011;45951;45.824;8.824;2023-06-10T02:35:50;22.73;;;18.20;;
60078;SDS011;45951;45.824;8.824;2023-06-10T02:37:30;22.73;;;18.75;;
60078;SDS011;45951;45.824;8.824;2023-06-10T02:39:11;24.73;;;19.60;;
60078;SDS011;45951;45.824;8.824;2023-06-10T02:40:51;26.13;;;20.13;;
60078;SDS011;45951;45.824;8.824;2023-06-10T02:42:31;22.58;;;18.83;;
60078;SDS011;45951;45.824;8.824;2023-06-10T02:44:12;23.40;;;18.33;;
60078;SDS011;45951;45.824;8.824;2023-06-10T02:45:52;22.02;;;18.17;;
60078;SDS011;45951;45.824;8.824;2023-06-10T02:47:32;23.67;;;19.33;;
60078;SDS011;45951;45.824;8.824;2023-06-10T02:49:13;22.73;;;18.60;;
60078;SDS011;45951;45.824;8.824;2023-06-10T02:50:53;24.05;;;19.30;;
60078;SDS011;45951;45.824;8.824;2023-06-10T02:52:33;23.17;;;18.80;;
60078;SDS011;45951;45.824;8.824;2023-06-10T02:54:14;22.75;;;18.42;;
60078;SDS011;45951;45.824;8.824;2023-06-10T02:55:54;24.35;;;18.13;;
60078;SDS011;45951;45.824;8.824;2023-06-10T02:57:34;25.05;;;20.10;;
60078;SDS011;45951;45.824;8.824;2023-06-10T02:59:15;22.10;;;18.80;;
60078;SDS011;45951;45.824;8.824;2023-06-10T03:00:55;25.77;;;19.60;;
60078;SDS011;45951;45.824;8.824;2023-06-10T03:02:35;24.92;;;19.38;;
60078;SDS011;45951;45.824;8.824;2023-06-10T03:04:18;24.25;;;19.70;;
60078;SDS011;45951;45.824;8.824;2023-06-10T03:05:59;22.67;;;18.23;;
60078;SDS011;45951;45.824;8.824;2023-06-10T03:07:39;23.25;;;18.75;;
60078;SDS011;45951;45.824;8.824;2023-06-10T03:09:19;25.55;;;20.20;;
60078;SDS011;45951;45.824;8.824;2023-06-10T03:11:00;22.10;;;17.98;;
60078;SDS011;45951;45.824;8.824;2023-06-10T03:12:40;23.55;;;18.85;;
60078;SDS011;45951;45.824;8.824;2023-06-10T03:14:20;25.45;;;19.73;;
60078;SDS011;45951;45.824;8.824;2023-06-10T03:16:00;22.58;;;18.25;;
60078;SDS011;45951;45.824;8.824;2023-06-10T03:17:43;21.80;;;17.70;;
60078;SDS011;45951;45.824;8.824;2023-06-10T03:19:23;24.00;;;18.25;;
60078;SDS011;45951;45.824;8.824;2023-06-10T03:21:03;22.85;;;18.33;;
60078;SDS011;45951;45.824;8.824;2023-06-10T03:22:44;22.30;;;18.30;;
60078;SDS011;45951;45.824;8.824;2023-06-10T03:24:24;21.73;;;17.50;;
60078;SDS011;45951;45.824;8.824;2023-06-10T03:26:05;23.00;;;17.40;;
60078;SDS011;45951;45.824;8.824;2023-06-10T03:27:45;23.17;;;17.85;;
60078;SDS011;45951;45.824;8.824;2023-06-10T03:29:25;23.52;;;18.17;;
60078;SDS011;45951;45.824;8.824;2023-06-10T03:31:06;24.13;;;19.02;;
60078;SDS011;45951;45.824;8.824;2023-06-10T03:32:46;23.65;;;18.67;;
60078;SDS011;45951;45.824;8.824;2023-06-10T03:34:26;22.75;;;18.90;;
60078;SDS011;45951;45.824;8.824;2023-06-10T03:36:07;23.95;;;18.27;;
60078;SDS011;45951;45.824;8.824;2023-06-10T03:37:47;23.05;;;18.70;;
60078;SDS011;45951;45.824;8.824;2023-06-10T03:39:27;24.40;;;19.23;;
60078;SDS011;45951;45.824;8.824;2023-06-10T03:41:09;20.50;;;17.15;;
60078;SDS011;45951;45.824;8.824;2023-06-10T03:42:49;25.20;;;19.35;;
60078;SDS011;45951;45.824;8.824;2023-06-10T03:44:30;24.08;;;18.63;;
60078;SDS011;45951;45.824;8.824;2023-06-10T03:46:10;24.02;;;19.25;;
60078;SDS011;45951;45.824;8.824;2023-06-10T03:47:50;23.13;;;18.88;;
60078;SDS011;45951;45.824;8.824;2023-06-10T03:49:31;24.05;;;17.75;;
60078;SDS011;45951;45.824;8.824;2023-06-10T03:51:11;22.77;;;18.13;;
60078;SDS011;45951;45.824;8.824;2023-06-10T03:52:51;19.55;;;16.35;;
60078;SDS011;45951;45.824;8.824;2023-06-10T03:54:32;23.65;;;17.75;;
60078;SDS011;45951;45.824;8.824;2023-06-10T03:56:14;22.13;;;17.63;;
60078;SDS011;45951;45.824;8.824;2023-06-10T03:57:54;22.42;;;17.45;;
60078;SDS011;45951;45.824;8.824;2023-06-10T03:59:34;21.85;;;17.05;;
60078;SDS011;45951;45.824;8.824;2023-06-10T04:01:15;20.65;;;17.45;;
60078;SDS011;45951;45.824;8.824;2023-06-10T04:02:57;22.00;;;16.55;;
60078;SDS011;45951;45.824;8.824;2023-06-10T04:04:38;22.17;;;18.08;;
60078;SDS011;45951;45.824;8.824;2023-06-10T04:06:18;21.70;;;16.95;;
60078;SDS011;45951;45.824;8.824;2023-06-10T04:07:59;21.60;;;17.73;;
60078;SDS011;45951;45.824;8.824;2023-06-10T04:09:41;22.50;;;17.83;;
60078;SDS011;45951;45.824;8.824;2023-06-10T04:11:21;23.02;;;18.55;;
60078;SDS011;45951;45.824;8.824;2023-06-10T04:13:02;22.70;;;17.65;;
60078;SDS011;45951;45.824;8.824;2023-06-10T04:14:43;21.80;;;17.33;;
60078;SDS011;45951;45.824;8.824;2023-06-10T04:16:23;22.98;;;17.83;;
60078;SDS011;45951;45.824;8.824;2023-06-10T04:18:04;22.65;;;17.58;;
60078;SDS011;45951;45.824;8.824;2023-06-10T04:19:45;21.48;;;17.25;;
60078;SDS011;45951;45.824;8.824;2023-06-10T04:21:25;24.80;;;18.58;;
60078;SDS011;45951;45.824;8.824;2023-06-10T04:23:06;22.10;;;17.20;;
60078;SDS011;45951;45.824;8.824;2023-06-10T04:24:47;19.48;;;16.05;;
60078;SDS011;45951;45.824;8.824;2023-06-10T04:26:27;22.30;;;16.33;;
60078;SDS011;45951;45.824;8.824;2023-06-10T04:28:07;18.63;;;14.93;;
60078;SDS011;45951;45.824;8.824;2023-06-10T04:29:48;20.13;;;14.93;;
60078;SDS011;45951;45.824;8.824;2023-06-10T04:31:28;20.65;;;15.55;;
60078;SDS011;45951;45.824;8.824;2023-06-10T04:33:08;19.25;;;15.32;;
60078;SDS011;45951;45.824;8.824;2023-06-10T04:34:49;18.70;;;15.13;;
60078;SDS011;45951;45.824;8.824;2023-06-10T04:36:29;19.90;;;15.18;;
60078;SDS011;45951;45.824;8.824;2023-06-10T04:38:10;18.83;;;15.27;;
60078;SDS011;45951;45.824;8.824;2023-06-10T04:39:50;18.27;;;15.23;;
60078;SDS011;45951;45.824;8.824;2023-06-10T04:41:30;18.40;;;15.38;;
60078;SDS011;45951;45.824;8.824;2023-06-10T04:43:11;19.15;;;15.13;;
60078;SDS011;45951;45.824;8.824;2023-06-10T04:44:52;18.65;;;14.70;;
60078;SDS011;45951;45.824;8.824;2023-06-10T04:46:32;20.95;;;15.30;;
60078;SDS011;45951;45.824;8.824;2023-06-10T04:48:13;22.52;;;15.23;;
60078;SDS011;45951;45.824;8.824;2023-06-10T04:49:53;19.13;;;15.52;;
60078;SDS011;45951;45.824;8.824;2023-06-10T04:51:34;18.77;;;14.82;;
60078;SDS011;45951;45.824;8.824;2023-06-10T04:53:14;18.50;;;14.80;;
60078;SDS011;45951;45.824;8.824;2023-06-10T04:54:55;18.20;;;16.17;;
60078;SDS011;45951;45.824;8.824;2023-06-10T04:56:38;19.27;;;15.73;;
60078;SDS011;45951;45.824;8.824;2023-06-10T04:58:19;20.70;;;16.80;;
60078;SDS011;45951;45.824;8.824;2023-06-10T04:59:59;19.20;;;16.13;;
60078;SDS011;45951;45.824;8.824;2023-06-10T05:01:40;19.98;;;15.70;;
60078;SDS011;45951;45.824;8.824;2023-06-10T05:03:20;18.92;;;15.57;;
60078;SDS011;45951;45.824;8.824;2023-06-10T05:05:00;19.95;;;15.43;;
60078;SDS011;45951;45.824;8.824;2023-06-10T05:06:41;21.85;;;15.55;;
60078;SDS011;45951;45.824;8.824;2023-06-10T05:08:21;18.42;;;15.05;;
60078;SDS011;45951;45.824;8.824;2023-06-10T05:10:01;20.45;;;15.15;;
60078;SDS011;45951;45.824;8.824;2023-06-10T05:11:42;21.85;;;17.10;;
60078;SDS011;45951;45.824;8.824;2023-06-10T05:13:23;20.67;;;16.00;;
60078;SDS011;45951;45.824;8.824;2023-06-10T05:15:03;20.17;;;16.92;;
60078;SDS011;45951;45.824;8.824;2023-06-10T05:16:44;19.98;;;16.75;;
60078;SDS011;45951;45.824;8.824;2023-06-10T05:18:24;19.40;;;16.30;;
60078;SDS011;45951;45.824;8.824;2023-06-10T05:20:04;20.20;;;16.85;;
60078;SDS011;45951;45.824;8.824;2023-06-10T05:21:46;23.05;;;18.25;;
60078;SDS011;45951;45.824;8.824;2023-06-10T05:23:26;20.98;;;16.63;;
60078;SDS011;45951;45.824;8.824;2023-06-10T05:25:07;21.60;;;16.88;;
60078;SDS011;45951;45.824;8.824;2023-06-10T05:26:47;20.58;;;16.80;;
60078;SDS011;45951;45.824;8.824;2023-06-10T05:28:28;20.08;;;16.80;;
60078;SDS011;45951;45.824;8.824;2023-06-10T05:30:10;19.67;;;16.38;;
60078;SDS011;45951;45.824;8.824;2023-06-10T05:31:50;21.58;;;16.67;;
60078;SDS011;45951;45.824;8.824;2023-06-10T05:33:30;20.77;;;16.55;;
60078;SDS011;45951;45.824;8.824;2023-06-10T05:35:11;23.65;;;18.70;;
60078;SDS011;45951;45.824;8.824;2023-06-10T05:36:51;19.77;;;16.75;;
60078;SDS011;45951;45.824;8.824;2023-06-10T05:38:31;21.50;;;17.40;;
60078;SDS011;45951;45.824;8.824;2023-06-10T05:40:12;21.60;;;18.48;;
60078;SDS011;45951;45.824;8.824;2023-06-10T05:41:52;22.83;;;19.13;;
60078;SDS011;45951;45.824;8.824;2023-06-10T05:43:32;23.80;;;18.00;;
60078;SDS011;45951;45.824;8.824;2023-06-10T05:45:13;22.23;;;18.27;;
60078;SDS011;45951;45.824;8.824;2023-06-10T05:46:53;23.70;;;18.63;;
60078;SDS011;45951;45.824;8.824;2023-06-10T05:48:33;24.55;;;18.67;;
60078;SDS011;45951;45.824;8.824;2023-06-10T05:50:14;23.83;;;19.38;;
60078;SDS011;45951;45.824;8.824;2023-06-10T05:51:55;22.08;;;17.83;;
60078;SDS011;45951;45.824;8.824;2023-06-10T05:53:37;22.23;;;17.75;;
60078;SDS011;45951;45.824;8.824;2023-06-10T05:55:18;22.38;;;18.70;;
60078;SDS011;45951;45.824;8.824;2023-06-10T05:56:58;23.42;;;18.40;;
60078;SDS011;45951;45.824;8.824;2023-06-10T05:58:39;21.88;;;17.67;;
60078;SDS011;45951;45.824;8.824;2023-06-10T06:00:19;21.70;;;17.05;;
60078;SDS011;45951;45.824;8.824;2023-06-10T06:01:59;20.83;;;18.02;;
60078;SDS011;45951;45.824;8.824;2023-06-10T06:03:40;20.13;;;16.50;;
60078;SDS011;45951;45.824;8.824;2023-06-10T06:05:20;19.63;;;16.38;;
60078;SDS011;45951;45.824;8.824;2023-06-10T06:07:00;19.88;;;16.98;;
60078;SDS011;45951;45.824;8.824;2023-06-10T06:08:40;22.00;;;18.00;;
60078;SDS011;45951;45.824;8.824;2023-06-10T06:10:21;21.35;;;17.52;;
60078;SDS011;45951;45.824;8.824;2023-06-10T06:12:01;20.48;;;16.58;;
60078;SDS011;45951;45.824;8.824;2023-06-10T06:13:41;21.10;;;17.17;;
60078;SDS011;45951;45.824;8.824;2023-06-10T06:15:22;20.90;;;16.77;;
60078;SDS011;45951;45.824;8.824;2023-06-10T06:17:02;20.05;;;17.23;;
60078;SDS011;45951;45.824;8.824;2023-06-10T06:18:42;21.67;;;18.35;;
60078;SDS011;45951;45.824;8.824;2023-06-10T06:20:23;22.75;;;17.92;;
60078;SDS011;45951;45.824;8.824;2023-06-10T06:22:03;22.33;;;17.67;;
60078;SDS011;45951;45.824;8.824;2023-06-10T06:23:44;21.95;;;16.88;;
60078;SDS011;45951;45.824;8.824;2023-06-10T06:25:24;19.60;;;16.90;;
60078;SDS011;45951;45.824;8.824;2023-06-10T06:27:04;18.45;;;15.13;;
60078;SDS011;45951;45.824;8.824;2023-06-10T06:28:45;19.00;;;15.48;;
60078;SDS011;45951;45.824;8.824;2023-06-10T06:30:26;16.83;;;14.98;;
60078;SDS011;45951;45.824;8.824;2023-06-10T06:32:06;18.38;;;15.07;;
60078;SDS011;45951;45.824;8.824;2023-06-10T06:33:47;19.50;;;16.38;;
60078;SDS011;45951;45.824;8.824;2023-06-10T06:35:27;17.02;;;14.50;;
60078;SDS011;45951;45.824;8.824;2023-06-10T06:37:11;17.63;;;15.32;;
60078;SDS011;45951;45.824;8.824;2023-06-10T06:38:51;18.08;;;15.60;;
60078;SDS011;45951;45.824;8.824;2023-06-10T06:40:31;18.90;;;15.65;;
60078;SDS011;45951;45.824;8.824;2023-06-10T06:42:12;17.65;;;14.90;;
60078;SDS011;45951;45.824;8.824;2023-06-10T06:43:53;17.30;;;14.40;;
60078;SDS011;45951;45.824;8.824;2023-06-10T06:45:34;16.05;;;14.02;;
60078;SDS011;45951;45.824;8.824;2023-06-10T06:47:14;17.10;;;14.63;;
60078;SDS011;45951;45.824;8.824;2023-06-10T06:48:54;17.67;;;15.15;;
60078;SDS011;45951;45.824;8.824;2023-06-10T06:50:35;18.20;;;15.70;;
60078;SDS011;45951;45.824;8.824;2023-06-10T06:52:15;19.40;;;16.98;;
60078;SDS011;45951;45.824;8.824;2023-06-10T06:53:56;20.63;;;16.77;;
60078;SDS011;45951;45.824;8.824;2023-06-10T06:55:38;18.17;;;15.65;;
60078;SDS011;45951;45.824;8.824;2023-06-10T06:57:18;18.50;;;15.80;;
60078;SDS011;45951;45.824;8.824;2023-06-10T06:58:59;18.92;;;15.45;;
60078;SDS011;45951;45.824;8.824;2023-06-10T07:00:39;18.95;;;16.55;;
60078;SDS011;45951;45.824;8.824;2023-06-10T07:02:20;20.88;;;16.52;;
60078;SDS011;45951;45.824;8.824;2023-06-10T07:04:00;19.52;;;15.80;;
60078;SDS011;45951;45.824;8.824;2023-06-10T07:05:40;19.83;;;15.93;;
60078;SDS011;45951;45.824;8.824;2023-06-10T07:07:20;21.52;;;16.15;;
60078;SDS011;45951;45.824;8.824;2023-06-10T07:09:01;17.90;;;15.50;;
60078;SDS011;45951;45.824;8.824;2023-06-10T07:10:41;17.40;;;14.88;;
60078;SDS011;45951;45.824;8.824;2023-06-10T07:12:22;17.90;;;14.50;;
60078;SDS011;45951;45.824;8.824;2023-06-10T07:14:04;18.20;;;15.00;;
60078;SDS011;45951;45.824;8.824;2023-06-10T07:15:44;17.98;;;15.15;;
60078;SDS011;45951;45.824;8.824;2023-06-10T07:17:24;17.75;;;14.98;;
60078;SDS011;45951;45.824;8.824;2023-06-10T07:19:05;17.83;;;15.18;;
60078;SDS011;45951;45.824;8.824;2023-06-10T07:20:45;22.15;;;14.93;;
60078;SDS011;45951;45.824;8.824;2023-06-10T07:22:25;21.83;;;17.20;;
60078;SDS011;45951;45.824;8.824;2023-06-10T07:24:06;21.95;;;17.85;;
60078;SDS011;45951;45.824;8.824;2023-06-10T07:25:46;21.77;;;17.05;;
60078;SDS011;45951;45.824;8.824;2023-06-10T07:27:27;22.42;;;18.90;;
60078;SDS011;45951;45.824;8.824;2023-06-10T07:29:07;20.27;;;16.73;;
60078;SDS011;45951;45.824;8.824;2023-06-10T07:30:47;23.25;;;17.58;;
60078;SDS011;45951;45.824;8.824;2023-06-10T07:32:28;21.23;;;16.55;;
60078;SDS011;45951;45.824;8.824;2023-06-10T07:34:08;20.25;;;16.33;;
60078;SDS011;45951;45.824;8.824;2023-06-10T07:35:48;20.58;;;16.95;;
60078;SDS011;45951;45.824;8.824;2023-06-10T07:37:29;19.90;;;16.55;;
60078;SDS011;45951;45.824;8.824;2023-06-10T07:39:09;22.00;;;16.65;;
60078;SDS011;45951;45.824;8.824;2023-06-10T07:40:50;19.35;;;15.95;;
60078;SDS011;45951;45.824;8.824;2023-06-10T07:42:34;19.83;;;16.45;;
60078;SDS011;45951;45.824;8.824;2023-06-10T07:44:16;23.15;;;17.80;;
60078;SDS011;45951;45.824;8.824;2023-06-10T07:45:56;21.08;;;18.17;;
60078;SDS011;45951;45.824;8.824;2023-06-10T07:47:37;19.85;;;15.95;;
60078;SDS011;45951;45.824;8.824;2023-06-10T07:49:17;21.52;;;17.35;;
60078;SDS011;45951;45.824;8.824;2023-06-10T07:50:57;18.50;;;16.25;;
60078;SDS011;45951;45.824;8.824;2023-06-10T07:52:37;20.20;;;16.33;;
60078;SDS011;45951;45.824;8.824;2023-06-10T07:54:18;21.55;;;16.92;;
60078;SDS011;45951;45.824;8.824;2023-06-10T07:55:58;20.73;;;16.30;;
60078;SDS011;45951;45.824;8.824;2023-06-10T07:57:38;18.98;;;16.77;;
60078;SDS011;45951;45.824;8.824;2023-06-10T07:59:19;18.85;;;15.75;;
60078;SDS011;45951;45.824;8.824;2023-06-10T08:00:59;19.42;;;15.98;;
60078;SDS011;45951;45.824;8.824;2023-06-10T08:02:39;20.83;;;16.50;;
60078;SDS011;45951;45.824;8.824;2023-06-10T08:04:20;20.20;;;16.25;;
60078;SDS011;45951;45.824;8.824;2023-06-10T08:06:00;19.95;;;16.92;;
60078;SDS011;45951;45.824;8.824;2023-06-10T08:07:41;19.70;;;16.38;;
60078;SDS011;45951;45.824;8.824;2023-06-10T08:09:21;19.83;;;16.67;;
60078;SDS011;45951;45.824;8.824;2023-06-10T08:11:03;20.05;;;15.80;;
60078;SDS011;45951;45.824;8.824;2023-06-10T08:12:43;24.17;;;16.33;;
60078;SDS011;45951;45.824;8.824;2023-06-10T08:14:23;21.90;;;18.63;;
60078;SDS011;45951;45.824;8.824;2023-06-10T08:16:03;21.98;;;18.63;;
60078;SDS011;45951;45.824;8.824;2023-06-10T08:17:44;21.23;;;18.15;;
60078;SDS011;45951;45.824;8.824;2023-06-10T08:19:24;19.10;;;16.60;;
60078;SDS011;45951;45.824;8.824;2023-06-10T08:21:05;22.52;;;16.67;;
60078;SDS011;45951;45.824;8.824;2023-06-10T08:22:45;18.92;;;16.27;;
60078;SDS011;45951;45.824;8.824;2023-06-10T08:24:25;20.20;;;15.63;;
60078;SDS011;45951;45.824;8.824;2023-06-10T08:26:06;20.77;;;15.63;;
60078;SDS011;45951;45.824;8.824;2023-06-10T08:27:46;17.98;;;15.50;;
60078;SDS011;45951;45.824;8.824;2023-06-10T08:29:26;18.40;;;16.40;;
60078;SDS011;45951;45.824;8.824;2023-06-10T08:31:06;21.23;;;17.23;;
60078;SDS011;45951;45.824;8.824;2023-06-10T08:32:47;22.15;;;18.33;;
60078;SDS011;45951;45.824;8.824;2023-06-10T08:34:27;24.35;;;18.67;;
60078;SDS011;45951;45.824;8.824;2023-06-10T08:36:07;20.55;;;17.42;;
60078;SDS011;45951;45.824;8.824;2023-06-10T08:37:48;20.50;;;17.48;;
60078;SDS011;45951;45.824;8.824;2023-06-10T08:39:28;22.58;;;17.50;;
60078;SDS011;45951;45.824;8.824;2023-06-10T08:41:12;21.73;;;18.08;;
60078;SDS011;45951;45.824;8.824;2023-06-10T08:43:00;22.02;;;18.35;;
60078;SDS011;45951;45.824;8.824;2023-06-10T08:44:45;23.25;;;18.23;;
60078;SDS011;45951;45.824;8.824;2023-06-10T08:46:27;22.17;;;18.77;;
60078;SDS011;45951;45.824;8.824;2023-06-10T08:48:08;21.55;;;18.38;;
60078;SDS011;45951;45.824;8.824;2023-06-10T08:49:50;21.58;;;18.45;;
60078;SDS011;45951;45.824;8.824;2023-06-10T08:51:32;22.45;;;18.77;;
60078;SDS011;45951;45.824;8.824;2023-06-10T08:53:16;23.83;;;19.30;;
60078;SDS011;45951;45.824;8.824;2023-06-10T08:54:59;22.58;;;19.15;;
60078;SDS011;45951;45.824;8.824;2023-06-10T08:56:40;22.77;;;18.92;;
60078;SDS011;45951;45.824;8.824;2023-06-10T08:58:21;23.30;;;18.35;;
60078;SDS011;45951;45.824;8.824;2023-06-10T09:00:02;24.30;;;19.17;;
60078;SDS011;45951;45.824;8.824;2023-06-10T09:01:43;22.88;;;18.45;;
60078;SDS011;45951;45.824;8.824;2023-06-10T09:03:24;21.85;;;17.95;;
60078;SDS011;45951;45.824;8.824;2023-06-10T09:05:05;22.92;;;18.98;;
60078;SDS011;45951;45.824;8.824;2023-06-10T09:06:46;21.35;;;17.88;;
60078;SDS011;45951;45.824;8.824;2023-06-10T09:08:29;21.27;;;17.35;;
60078;SDS011;45951;45.824;8.824;2023-06-10T09:10:09;21.02;;;17.73;;
60078;SDS011;45951;45.824;8.824;2023-06-10T09:11:51;21.63;;;18.48;;
60078;SDS011;45951;45.824;8.824;2023-06-10T09:13:31;22.73;;;18.00;;
60078;SDS011;45951;45.824;8.824;2023-06-10T09:15:11;19.90;;;17.35;;
60078;SDS011;45951;45.824;8.824;2023-06-10T09:16:54;20.55;;;17.80;;
60078;SDS011;45951;45.824;8.824;2023-06-10T09:18:37;21.52;;;16.27;;
60078;SDS011;45951;45.824;8.824;2023-06-10T09:20:18;20.33;;;17.50;;
60078;SDS011;45951;45.824;8.824;2023-06-10T09:21:58;21.23;;;17.98;;
60078;SDS011;45951;45.824;8.824;2023-06-10T09:23:39;20.60;;;17.65;;
60078;SDS011;45951;45.824;8.824;2023-06-10T09:25:20;19.35;;;16.52;;
60078;SDS011;45951;45.824;8.824;2023-06-10T09:27:15;19.73;;;16.65;;
60078;SDS011;45951;45.824;8.824;2023-06-10T09:29:05;20.38;;;16.80;;
60078;SDS011;45951;45.824;8.824;2023-06-10T09:30:48;19.98;;;16.08;;
60078;SDS011;45951;45.824;8.824;2023-06-10T09:32:28;18.20;;;15.90;;
60078;SDS011;45951;45.824;8.824;2023-06-10T09:34:11;18.33;;;16.33;;
60078;SDS011;45951;45.824;8.824;2023-06-10T09:35:52;22.63;;;18.30;;
60078;SDS011;45951;45.824;8.824;2023-06-10T09:37:32;18.88;;;16.38;;
60078;SDS011;45951;45.824;8.824;2023-06-10T09:39:14;21.05;;;17.13;;
60078;SDS011;45951;45.824;8.824;2023-06-10T09:40:55;21.35;;;17.42;;
60078;SDS011;45951;45.824;8.824;2023-06-10T09:42:38;19.25;;;17.17;;
60078;SDS011;45951;45.824;8.824;2023-06-10T09:44:19;19.77;;;16.42;;
60078;SDS011;45951;45.824;8.824;2023-06-10T09:46:00;19.08;;;15.60;;
60078;SDS011;45951;45.824;8.824;2023-06-10T09:47:41;20.23;;;17.10;;
60078;SDS011;45951;45.824;8.824;2023-06-10T09:49:21;19.17;;;17.05;;
60078;SDS011;45951;45.824;8.824;2023-06-10T09:51:01;20.55;;;17.30;;
60078;SDS011;45951;45.824;8.824;2023-06-10T09:52:42;19.08;;;15.50;;
60078;SDS011;45951;45.824;8.824;2023-06-10T09:54:22;18.05;;;15.48;;